• Join FlightAware (Why Join?)
  • Login
  • US Flag 
12:24AM EST


 

Airport Tracker/Info


-or-


 

Live Flight TrackerFlight Track Log ✈ SWA1535 ✈ 25-Apr-2013 ✈ KPVD - KMCO

Flight Track Log - Related Links

Times and Time Zones

All times are in EDT time to prevent confusion due to time zone crossing. See the SWA1535 flight status page for this flight to view local times or setup timezone preferences in your user account.

Time Position Orientation Groundspeed Altitude Reporting Facility
EDT Latitude Longitude Course Direction KTS MPH feet Rate Location/Type
01:11PM 41.7625 -71.4522 North 214 246 2,300  Level Boston Center
01:12PM 41.8208 -71.4483 North 229 264 6,000 3,420 Climbing Boston Center
01:12PM 41.8333 -71.4425 19° North 241 277 6,300 780 Climbing Boston Center
01:13PM 41.8117 -71.3594 109° East 213 245 7,000 480 Climbing Boston Center
01:14PM 41.7367 -71.3550 177° South 188 216 7,300 1,500 Climbing Boston Center
01:15PM 41.6636 -71.3397 171° South 229 264 10,000 2,400 Climbing Boston Center
01:16PM 41.5758 -71.3272 174° South 273 314 12,100 2,880 Climbing Boston Center
01:17PM 41.4839 -71.3122 173° South 318 366 15,800 3,480 Climbing Boston Center
01:18PM 41.3922 -71.2944 172° South 337 388 19,100 2,940 Climbing Boston Center
01:19PM 41.2961 -71.2742 171° South 343 395 21,700 2,280 Climbing Boston Center
01:20PM 41.1939 -71.2678 177° South 357 411 23,700 2,040 Climbing Boston Center
01:21PM 41.1322 -71.3625 229° Southwest 321 369 25,800 2,100 Climbing Boston Center
01:22PM 41.0917 -71.4844 246° West 322 371 27,900 2,400 Climbing Boston Center
01:23PM 41.0386 -71.6092 241° Southwest 339 390 30,700 2,160 Climbing Boston Center
01:24PM 41.0058 -71.7031 245° Southwest 352 405 32,300 1,620 Climbing Boston Center
01:25PM 40.9692 -71.8381 250° West 352 405 34,000 840 Climbing Boston Center
01:26PM 40.9217 -71.9456 240° Southwest 357 411 34,000  Level Boston Center
01:27PM 40.8783 -72.0639 244° Southwest 357 411 34,000  Level Boston Center
01:28PM 40.8372 -72.1767 244° Southwest 352 405 34,000  Level Boston Center
01:29PM 40.7956 -72.2919 245° Southwest 352 405 34,000  Level Boston Center
01:30PM 40.7333 -72.3853 229° Southwest 347 399 34,000  Level Boston Center
01:31PM 40.6686 -72.4728 226° Southwest 342 394 34,000  Level Boston Center
01:32PM 40.5956 -72.5575 221° Southwest 342 394 34,000  Level Boston Center
01:33PM 40.5267 -72.6447 224° Southwest 348 400 34,000  Level Boston Center
01:34PM 40.4578 -72.7292 223° Southwest 342 394 34,000  Level Boston Center
01:35PM 40.3867 -72.8133 222° Southwest 347 399 34,000  Level Boston Center
01:36PM 40.2781 -72.9486 224° Southwest 338 389 34,000  Level Washington Center
01:37PM 40.2050 -73.0356 222° Southwest 345 397 34,000  Level Washington Center
01:38PM 40.1339 -73.1222 223° Southwest 350 403 34,000  Level Washington Center
01:39PM 40.0628 -73.2089 223° Southwest 350 403 34,000  Level Washington Center
01:40PM 39.9894 -73.2953 222° Southwest 355 409 34,000  Level Washington Center
01:41PM 39.9161 -73.3842 223° Southwest 361 415 34,000  Level Washington Center
01:42PM 39.8364 -73.4758 221° Southwest 361 415 34,000  Level Washington Center
01:43PM 39.7589 -73.5617 220° Southwest 361 415 34,000  Level Washington Center
01:44PM 39.6872 -73.6500 223° Southwest 361 415 34,000  Level Washington Center
01:45PM 39.6117 -73.7411 223° Southwest 361 415 34,000  Level Washington Center
01:46PM 39.5400 -73.8264 223° Southwest 361 415 34,000  Level Washington Center
01:47PM 39.4661 -73.9114 222° Southwest 361 415 34,000 720 Level Washington Center
01:48PM 39.3964 -73.9936 222° Southwest 361 415 35,500 960 Climbing Washington Center
01:49PM 39.3225 -74.0783 222° Southwest 361 415 36,000 240 Climbing Washington Center
01:50PM 39.2486 -74.1658 223° Southwest 361 415 36,000  Level Washington Center
01:51PM 39.1725 -74.2531 222° Southwest 361 415 36,000  Level Washington Center
01:52PM 39.0983 -74.3372 221° Southwest 361 415 36,000  Level Washington Center
01:53PM 39.0222 -74.4242 222° Southwest 356 410 36,000  Level Washington Center
01:54PM 38.9481 -74.5106 222° Southwest 356 410 36,000  Level Washington Center
01:55PM 38.8756 -74.5944 222° Southwest 361 415 36,000  Level Washington Center
01:56PM 38.7992 -74.6781 220° Southwest 361 415 36,000  Level Washington Center
01:57PM 38.7247 -74.7642 222° Southwest 361 415 36,000  Level Washington Center
01:58PM 38.6503 -74.8419 219° Southwest 361 415 36,000  Level Washington Center
01:59PM 38.5736 -74.9225 219° Southwest 355 409 36,000  Level Washington Center
02:00PM 38.4969 -75.0000 218° Southwest 355 409 36,000  Level Washington Center
02:01PM 38.4222 -75.0803 220° Southwest 355 409 36,000  Level Washington Center
02:02PM 38.3475 -75.1628 221° Southwest 355 409 36,000  Level Washington Center
02:03PM 38.2747 -75.2453 222° Southwest 355 409 36,000  Level Washington Center
02:04PM 38.1978 -75.3197 217° Southwest 355 409 36,000  Level Washington Center
02:05PM 38.1231 -75.4044 222° Southwest 360 414 36,000  Level Washington Center
02:06PM 38.0606 -75.4653 217° Southwest 360 414 36,000  Level Washington Center
02:07PM 37.9583 -75.5469 212° Southwest 365 420 36,000  Level Washington Center
02:08PM 37.8708 -75.6103 210° Southwest 365 420 36,000  Level Washington Center
02:09PM 37.7831 -75.6758 211° Southwest 370 426 36,000  Level Washington Center
02:10PM 37.6933 -75.7414 210° Southwest 370 426 36,000  Level Washington Center
02:11PM 37.6078 -75.8067 211° Southwest 370 426 36,000  Level Washington Center
02:12PM 37.5181 -75.8719 210° Southwest 370 426 36,000  Level Washington Center
02:13PM 37.4219 -75.9239 203° Southwest 375 432 36,000  Level Washington Center
02:14PM 37.3217 -75.9758 202° Southwest 382 440 36,000  Level Washington Center
02:15PM 37.2233 -76.0275 203° Southwest 382 440 36,000  Level Washington Center
02:16PM 37.1272 -76.0789 203° Southwest 382 440 36,000  Level Washington Center
02:17PM 37.0311 -76.1331 204° Southwest 382 440 36,000  Level Washington Center
02:18PM 36.9369 -76.1767 200° South 387 445 36,000  Level Washington Center
02:19PM 36.8469 -76.2381 209° Southwest 387 445 36,000  Level Washington Center
02:20PM 36.7653 -76.3153 217° Southwest 377 434 36,000  Level Washington Center
02:21PM 36.6811 -76.3947 217° Southwest 377 434 36,000  Level Washington Center
02:22PM 36.6014 -76.4717 218° Southwest 377 434 36,000  Level Washington Center
02:23PM 36.5214 -76.5533 219° Southwest 377 434 36,000  Level Washington Center
02:24PM 36.4394 -76.6350 219° Southwest 377 434 36,000  Level Washington Center
02:25PM 36.3594 -76.7139 218° Southwest 377 434 36,000  Level Washington Center
02:26PM 36.2814 -76.7953 220° Southwest 377 434 36,000  Level Washington Center
02:27PM 36.1992 -76.8764 219° Southwest 377 434 36,000  Level Washington Center
02:28PM 36.1211 -76.9575 220° Southwest 377 434 36,000  Level Washington Center
02:29PM 36.0389 -77.0383 218° Southwest 377 434 36,000  Level Washington Center
02:30PM 35.9586 -77.1189 219° Southwest 377 434 36,000  Level Washington Center
02:31PM 35.8822 -77.2019 221° Southwest 372 428 36,000  Level Washington Center
02:32PM 35.7978 -77.2797 217° Southwest 372 428 36,000  Level Washington Center
02:33PM 35.7175 -77.3597 219° Southwest 382 440 36,000  Level Washington Center
02:34PM 35.6369 -77.4425 220° Southwest 382 440 36,000  Level Washington Center
02:35PM 35.5564 -77.5197 218° Southwest 377 434 36,000  Level Washington Center
02:36PM 35.4758 -77.5994 219° Southwest 377 434 36,000  Level Washington Center
02:37PM 35.3972 -77.6764 219° Southwest 377 434 36,000  Level Washington Center
02:38PM 35.3167 -77.7531 218° Southwest 377 434 36,000  Level Washington Center
02:39PM 35.2381 -77.8300 219° Southwest 372 428 36,000  Level Washington Center
02:40PM 35.1572 -77.9089 219° Southwest 372 428 36,000  Level Washington Center
02:41PM 35.0764 -77.9878 219° Southwest 372 428 36,000  Level Washington Center
02:42PM 34.9956 -78.0667 219° Southwest 372 428 36,000  Level Washington Center
02:43PM 34.9144 -78.1450 218° Southwest 372 428 36,000  Level Washington Center
02:45PM 34.7822 -78.2722 218° Southwest 375 432 36,000  Level Jacksonville Center
02:46PM 34.7042 -78.3572 222° Southwest 380 437 36,000  Level Jacksonville Center
02:47PM 34.6133 -78.4428 218° Southwest 380 437 36,000  Level Jacksonville Center
02:48PM 34.5361 -78.5072 215° Southwest 380 437 36,000  Level Jacksonville Center
02:49PM 34.4578 -78.5892 221° Southwest 380 437 36,000  Level Jacksonville Center
02:50PM 34.3728 -78.6689 218° Southwest 380 437 36,000  Level Jacksonville Center
02:51PM 34.2897 -78.7458 217° Southwest 385 443 36,000  Level Jacksonville Center
02:52PM 34.2069 -78.8250 218° Southwest 385 443 36,000  Level Jacksonville Center
02:53PM 34.1347 -78.9161 226° Southwest 385 443 36,000  Level Jacksonville Center
02:54PM 34.0708 -79.0094 230° Southwest 374 430 36,000  Level Jacksonville Center
02:55PM 34.0050 -79.1050 230° Southwest 374 430 36,000  Level Jacksonville Center
02:56PM 33.9389 -79.2031 231° Southwest 374 430 36,000  Level Jacksonville Center
02:57PM 33.8708 -79.2983 229° Southwest 374 430 36,000  Level Jacksonville Center
02:58PM 33.8067 -79.3933 231° Southwest 374 430 36,000  Level Jacksonville Center
02:59PM 33.7406 -79.4933 232° Southwest 367 422 36,000  Level Jacksonville Center
03:00PM 33.6742 -79.5908 231° Southwest 367 422 36,000  Level Jacksonville Center
03:01PM 33.6119 -79.6853 232° Southwest 367 422 36,000  Level Jacksonville Center
03:02PM 33.5456 -79.7825 231° Southwest 367 422 36,000  Level Jacksonville Center
03:03PM 33.4811 -79.8794 231° Southwest 372 428 36,000  Level Jacksonville Center
03:04PM 33.4167 -79.9736 231° Southwest 372 428 36,000  Level Jacksonville Center
03:05PM 33.3581 -80.0625 232° Southwest 378 435 36,000  Level Jacksonville Center
03:06PM 33.2933 -80.1567 231° Southwest 378 435 36,000  Level Jacksonville Center
03:07PM 33.2286 -80.2556 232° Southwest 378 435 36,000  Level Jacksonville Center
03:08PM 33.1303 -80.3453 217° Southwest 405 466 36,000  Level Jacksonville Center
03:09PM 33.0247 -80.3878 199° South 411 473 36,000  Level Jacksonville Center
03:10PM 32.9192 -80.4253 197° South 433 498 36,000  Level Jacksonville Center
03:11PM 32.8069 -80.4606 195° South 433 498 36,000  Level Jacksonville Center
03:12PM 32.6969 -80.4956 195° South 428 493 36,000  Level Jacksonville Center
03:13PM 32.5850 -80.5331 196° South 423 487 36,000  Level Jacksonville Center
03:14PM 32.4583 -80.5733 195° South 423 487 36,000  Level Jacksonville Center
03:15PM 32.3464 -80.6106 196° South 413 475 36,000  Level Jacksonville Center
03:16PM 32.2344 -80.6478 196° South 418 481 36,000  Level Jacksonville Center
03:17PM 32.1242 -80.6822 195° South 413 475 36,000  Level Jacksonville Center
03:18PM 32.0225 -80.7142 195° South 413 475 36,000  Level Jacksonville Center
03:19PM 31.8981 -80.7539 195° South 418 481 36,000  Level Jacksonville Center
03:20PM 31.7878 -80.7906 196° South 418 481 36,000  Level Jacksonville Center
03:21PM 31.6842 -80.8247 196° South 418 481 36,000  Level Jacksonville Center
03:22PM 31.5594 -80.8617 194° South 418 481 36,000  Level Jacksonville Center
03:23PM 31.4556 -80.8931 194° South 423 487 36,000  Level Jacksonville Center
03:24PM 31.3414 -80.9319 196° South 423 487 36,000  Level Jacksonville Center
03:25PM 31.2250 -80.9708 196° South 428 493 36,000  Level Jacksonville Center
03:26PM 31.1106 -81.0072 195° South 433 498 36,000 -120 Level Jacksonville Center
03:27PM 30.9942 -81.0436 195° South 433 498 35,800 -600 Descending Jacksonville Center
03:28PM 30.8778 -81.0797 195° South 433 498 34,800 -960 Descending Jacksonville Center
03:29PM 30.7636 -81.1156 195° South 433 498 33,900 -420 Descending Jacksonville Center
03:30PM 30.6492 -81.1492 194° South 433 498 34,000  Climbing Jacksonville Center
03:31PM 30.5261 -81.1514 181° South 433 498 34,000  Level Jacksonville Center
03:32PM 30.4028 -81.1464 178° South 438 504 34,000 -120 Level Jacksonville Center
03:33PM 30.2794 -81.1439 179° South 438 504 33,800 -1,200 Descending Jacksonville Center
03:34PM 30.1583 -81.1414 179° South 438 504 31,600 -2,100 Descending Jacksonville Center
03:35PM 30.0394 -81.1364 178° South 438 504 29,600 -2,040 Descending Jacksonville Center
03:36PM 29.9267 -81.1358 180° South 425 489 27,600 -1,980 Descending Jacksonville Center
03:37PM 29.8139 -81.1308 178° South 412 474 25,700 -1,860 Descending Jacksonville Center
03:38PM 29.7072 -81.1278 179° South 400 460 23,900 -1,800 Descending Jacksonville Center
03:39PM 29.6028 -81.1250 179° South 389 448 22,100 -1,800 Descending Jacksonville Center
03:40PM 29.5006 -81.1244 180° South 377 434 20,400 -1,680 Descending Jacksonville Center
03:41PM 29.4067 -81.1167 176° South 365 420 18,800 -1,620 Descending Jacksonville Center
03:42PM 29.3125 -81.1136 178° South 352 405 17,200 -1,740 Descending Jacksonville Center
03:43PM 29.2206 -81.1081 177° South 341 392 15,400 -1,740 Descending Jacksonville Center
03:44PM 29.1267 -81.1003 176° South 341 392 13,800 -1,560 Descending Jacksonville Center
03:46PM 28.9667 -81.0833 175° South 307 353 11,200 -1,560 Descending Orlando TRACON
03:47PM 28.8833 -81.0667 170° South 306 352 9,500 -1,800 Descending Orlando TRACON
03:48PM 28.8000 -81.0500 170° South 298 343 7,700 -1,740 Descending Orlando TRACON
03:49PM 28.7500 -81.1333 236° Southwest 264 304 6,000 -1,200 Descending Orlando TRACON
03:50PM 28.7167 -81.2000 240° Southwest 230 265 5,300 -900 Descending Orlando TRACON
03:51PM 28.6667 -81.2333 210° Southwest 231 266 4,200 -900 Descending Orlando TRACON
03:52PM 28.6167 -81.2667 210° Southwest 215 247 3,600 -960 Descending Orlando TRACON
03:53PM 28.5500 -81.2833 192° South 214 246 2,300 -1,140 Descending Orlando TRACON
03:54PM 28.5000 -81.2833 180° South 170 196 1,400 -900 Descending Orlando TRACON
03:55PM 28.4667 -81.3000 204° Southwest 143 165 600 -780 Descending Orlando TRACON
03:57PM 28.4294 -81.3090 180° South  Level Estimated
04:04PM 28.4294 -81.3090 336° Northwest  Level Estimated
04:05PM 28.4294 -81.3090 336° Northwest  Level Estimated
04:06PM 28.4294 -81.3090 336° Northwest  Level Estimated
04:07PM 28.4294 -81.3090 336° Northwest  Level Estimated